Time;durP1;ratioP1;P1;durP2;ratioP2;P2;SDS_P1;SDS_P2;PMS_P1;PMS_P2;Temp;Humidity;BMP_temperature;BMP_pressure;BME280_temperature;BME280_humidity;BME280_pressure;Samples;Min_cycle;Max_cycle;Signal;HPM_P1;HPM_P2
2022/08/28 00:00:42;;;;;;;21.40;8.40;;;;;;;20.56;80.75;94558.22;5063635;28;20205;-76
2022/08/28 00:03:11;;;;;;;21.33;8.45;;;;;;;20.49;79.35;94555.91;5063415;28;20209;-77
2022/08/28 00:05:39;;;;;;;20.42;8.00;;;;;;;20.47;80.36;94552.75;5062326;28;20312;-77
2022/08/28 00:08:07;;;;;;;19.90;7.97;;;;;;;20.45;81.22;94548.84;5058662;28;20327;-77
2022/08/28 00:10:34;;;;;;;20.60;8.43;;;;;;;20.41;81.61;94547.81;5066228;28;20233;-77
2022/08/28 00:13:01;;;;;;;11.77;7.93;;;;;;;20.45;79.97;94551.47;5066160;28;20216;-78
2022/08/28 00:15:31;;;;;;;19.75;8.02;;;;;;;20.41;79.97;94553.09;5066218;28;20241;-78
2022/08/28 00:17:59;;;;;;;22.40;8.45;;;;;;;20.34;80.84;94535.75;5065850;28;21189;-78
2022/08/28 00:20:28;;;;;;;22.63;8.25;;;;;;;20.41;80.91;94553.09;5064998;28;20201;-78
2022/08/28 00:22:55;;;;;;;18.77;8.15;;;;;;;20.42;82.48;94555.47;5066385;28;20197;-77
2022/08/28 00:25:25;;;;;;;17.25;8.10;;;;;;;20.45;81.63;94533.00;5066134;28;20283;-77
2022/08/28 00:27:51;;;;;;;16.38;8.13;;;;;;;20.50;81.92;94552.19;5066002;28;20231;-78
2022/08/28 00:30:18;;;;;;;21.30;8.68;;;;;;;20.57;82.00;94550.03;5065528;28;20236;-78
2022/08/28 00:32:45;;;;;;;17.60;7.85;;;;;;;20.58;81.90;94554.22;5063666;28;20213;-78
2022/08/28 00:35:12;;;;;;;15.27;7.90;;;;;;;20.59;81.68;94549.72;5065808;28;20205;-78
2022/08/28 00:37:41;;;;;;;14.73;7.88;;;;;;;20.51;82.72;94551.16;5061914;28;20225;-78
2022/08/28 00:40:09;;;;;;;15.90;8.75;;;;;;;20.43;83.29;94556.25;5062755;28;20201;-79
2022/08/28 00:42:37;;;;;;;19.83;8.43;;;;;;;20.27;83.90;94553.78;5066767;28;20216;-78
2022/08/28 00:45:05;;;;;;;20.27;8.60;;;;;;;20.03;84.53;94562.72;5066598;28;20209;-78
2022/08/28 00:47:33;;;;;;;17.73;9.07;;;;;;;19.92;85.21;94563.84;5066290;28;20228;-79
2022/08/28 00:50:02;;;;;;;19.15;9.13;;;;;;;19.86;86.14;94555.19;5065431;28;20229;-78
2022/08/28 00:52:28;;;;;;;16.42;8.38;;;;;;;19.82;87.00;94559.47;5064906;28;20224;-78
2022/08/28 00:55:01;;;;;;;19.75;8.80;;;;;;;19.80;87.42;94556.31;5065594;28;20202;-78
2022/08/28 00:57:31;;;;;;;15.85;8.57;;;;;;;19.83;86.52;94563.66;5065242;28;20552;-78
2022/08/28 00:59:58;;;;;;;19.02;9.18;;;;;;;19.74;86.72;94552.13;5065168;28;20204;-79
2022/08/28 01:02:26;;;;;;;16.90;8.98;;;;;;;19.87;87.65;94556.00;5065585;28;20258;-78
2022/08/28 01:04:54;;;;;;;21.92;8.60;;;;;;;19.90;85.46;94556.22;5064808;28;20231;-78
2022/08/28 01:07:22;;;;;;;21.50;9.15;;;;;;;19.98;84.82;94552.97;5064016;28;20201;-78
2022/08/28 01:09:52;;;;;;;19.88;8.77;;;;;;;19.98;84.87;94555.63;5065121;28;20276;-79
2022/08/28 01:12:23;;;;;;;20.55;9.00;;;;;;;20.02;84.71;94558.50;5064639;28;20779;-78
2022/08/28 01:14:54;;;;;;;19.75;8.85;;;;;;;20.00;84.66;94550.84;5063581;28;20783;-78
2022/08/28 01:17:23;;;;;;;17.70;8.57;;;;;;;20.00;84.95;94558.00;5064070;28;20209;-79
2022/08/28 01:19:57;;;;;;;22.50;8.63;;;;;;;19.97;85.16;94556.69;5063661;28;20304;-79
2022/08/28 01:22:30;;;;;;;23.80;9.07;;;;;;;19.95;85.52;94558.81;5064098;28;20679;-78
2022/08/28 01:25:02;;;;;;;19.63;8.60;;;;;;;19.92;85.06;94559.38;5065426;28;20201;-79
2022/08/28 01:27:29;;;;;;;18.42;9.10;;;;;;;19.97;83.86;94564.59;5065570;28;20217;-78
2022/08/28 01:29:56;;;;;;;29.08;9.23;;;;;;;19.94;83.78;94556.47;5064199;28;20404;-79
2022/08/28 01:32:35;;;;;;;19.73;8.07;;;;;;;19.91;84.62;94552.53;5064572;28;20205;-79
2022/08/28 01:35:02;;;;;;;22.85;9.60;;;;;;;19.89;84.63;94556.50;5064777;28;20841;-79
2022/08/28 01:37:30;;;;;;;22.33;8.50;;;;;;;19.82;85.27;94562.13;5062732;28;20723;-79
2022/08/28 01:40:00;;;;;;;21.45;8.57;;;;;;;19.75;85.38;94554.50;5063445;28;20200;-79
2022/08/28 01:42:26;;;;;;;17.10;8.73;;;;;;;19.69;87.01;94568.00;5063394;28;20574;-79
2022/08/28 01:44:53;;;;;;;19.90;8.38;;;;;;;19.73;86.33;94556.66;5064234;28;20233;-79
2022/08/28 01:47:21;;;;;;;21.95;8.75;;;;;;;19.74;85.78;94557.41;5064139;28;20635;-79
2022/08/28 01:49:48;;;;;;;18.63;8.55;;;;;;;19.72;86.57;94554.28;5063877;28;20316;-79
2022/08/28 01:52:15;;;;;;;18.38;8.45;;;;;;;19.76;86.31;94556.09;5063773;28;20558;-78
2022/08/28 01:54:42;;;;;;;19.67;8.88;;;;;;;19.81;86.30;94560.53;5062166;28;20676;-78
2022/08/28 01:57:10;;;;;;;20.60;9.05;;;;;;;19.81;85.51;94558.69;5062533;28;20244;-78
2022/08/28 01:59:37;;;;;;;19.75;9.00;;;;;;;19.72;86.36;94554.28;5064694;28;20220;-78
2022/08/28 02:02:04;;;;;;;19.27;8.45;;;;;;;19.69;86.32;94558.25;5064186;28;20669;-78
2022/08/28 02:04:31;;;;;;;17.30;9.23;;;;;;;19.66;87.41;94564.06;5063199;28;20217;-79
2022/08/28 02:06:58;;;;;;;19.70;8.30;;;;;;;19.62;87.90;94562.28;5063896;28;20210;-79
2022/08/28 02:09:25;;;;;;;16.92;8.65;;;;;;;19.56;88.24;94563.38;5063673;28;20612;-79
2022/08/28 02:11:52;;;;;;;16.50;8.52;;;;;;;19.55;88.57;94567.06;5064168;28;20255;-78
2022/08/28 02:14:21;;;;;;;16.30;7.63;;;;;;;19.57;88.26;94564.94;5062395;28;20599;-79
2022/08/28 02:16:48;;;;;;;17.27;8.35;;;;;;;19.60;88.31;94567.03;5063205;28;20205;-79
2022/08/28 02:19:15;;;;;;;25.40;8.98;;;;;;;19.52;88.67;94557.88;5061004;28;20274;-79
2022/08/28 02:21:42;;;;;;;20.00;8.98;;;;;;;19.58;88.29;94555.97;5063839;28;20197;-78
2022/08/28 02:24:09;;;;;;;17.67;8.90;;;;;;;19.56;88.36;94560.75;5062927;28;20201;-78
2022/08/28 02:26:36;;;;;;;19.80;9.07;;;;;;;19.50;87.95;94556.56;5063089;28;20715;-79
2022/08/28 02:29:03;;;;;;;15.55;8.43;;;;;;;19.45;89.19;94561.88;5064622;28;20216;-78
2022/08/28 02:31:32;;;;;;;16.15;8.35;;;;;;;19.36;90.70;94574.03;5062943;28;20229;-78
2022/08/28 02:33:58;;;;;;;17.08;8.02;;;;;;;19.42;90.46;94572.97;5063432;28;20205;-78
2022/08/28 02:36:25;;;;;;;18.75;8.23;;;;;;;19.43;89.88;94575.31;5063144;28;20213;-78
2022/08/28 02:38:52;;;;;;;15.32;7.95;;;;;;;19.46;89.71;94574.78;5062539;28;20205;-78
2022/08/28 02:41:19;;;;;;;16.85;8.20;;;;;;;19.42;89.42;94571.13;5062046;28;20201;-78
2022/08/28 02:43:46;;;;;;;29.20;8.65;;;;;;;19.43;89.38;94574.53;5063233;28;20201;-76
2022/08/28 02:46:13;;;;;;;18.63;8.60;;;;;;;19.40;88.80;94567.16;5063556;28;20660;-77
2022/08/28 02:48:41;;;;;;;19.50;7.85;;;;;;;19.31;88.87;94568.81;5060427;28;20253;-77
2022/08/28 02:51:12;;;;;;;17.50;8.50;;;;;;;19.23;89.01;94570.16;5062475;28;20688;-77
2022/08/28 02:53:39;;;;;;;23.10;8.02;;;;;;;19.12;88.67;94577.34;5063548;28;20571;-77
2022/08/28 02:56:06;;;;;;;16.05;8.20;;;;;;;19.11;88.20;94577.59;5064256;28;20209;-78
2022/08/28 02:58:34;;;;;;;25.85;8.63;;;;;;;19.07;89.19;94580.03;5064640;28;20778;-77
2022/08/28 03:01:02;;;;;;;21.88;8.48;;;;;;;19.05;90.78;94579.47;5065057;28;20206;-77
2022/08/28 03:03:31;;;;;;;15.77;8.20;;;;;;;19.09;91.35;94580.53;5063948;28;20296;-77
2022/08/28 03:06:00;;;;;;;15.90;9.40;;;;;;;19.07;91.67;94582.66;5063383;28;20328;-78
2022/08/28 03:08:28;;;;;;;20.55;9.02;;;;;;;19.02;91.19;94585.28;5063329;28;20197;-76
2022/08/28 03:10:55;;;;;;;18.92;8.90;;;;;;;18.87;91.36;94566.97;5061847;28;20320;-77
2022/08/28 03:13:22;;;;;;;20.15;8.98;;;;;;;18.98;90.87;94576.38;5061331;28;20219;-77
2022/08/28 03:15:49;;;;;;;17.58;8.90;;;;;;;18.99;90.94;94577.16;5062552;28;20226;-77
2022/08/28 03:18:17;;;;;;;25.00;9.07;;;;;;;18.94;91.70;94583.22;5062565;28;20212;-77
2022/08/28 03:20:45;;;;;;;16.10;8.93;;;;;;;18.95;91.83;94582.19;5063335;28;20198;-78
2022/08/28 03:23:29;;;;;;;19.83;8.48;;;;;;;18.98;91.58;94580.84;5064129;28;20205;-78
2022/08/28 03:25:58;;;;;;;21.42;8.82;;;;;;;19.00;91.90;94581.34;5061999;28;20201;-78
2022/08/28 03:28:27;;;;;;;17.77;8.73;;;;;;;18.95;92.63;94582.19;5063319;28;20275;-80
2022/08/28 03:30:54;;;;;;;20.85;8.60;;;;;;;18.97;92.81;94577.44;5064127;28;20231;-80
2022/08/28 03:33:21;;;;;;;19.15;8.70;;;;;;;18.93;93.03;94571.13;5062956;28;20204;-79
2022/08/28 03:35:49;;;;;;;19.75;8.75;;;;;;;19.01;92.68;94582.94;5064385;28;20210;-79
2022/08/28 03:38:17;;;;;;;19.08;8.15;;;;;;;18.91;92.48;94581.13;5064142;28;20200;-78
2022/08/28 03:40:46;;;;;;;18.58;8.60;;;;;;;18.96;92.75;94586.38;5063353;28;20671;-77
2022/08/28 03:43:15;;;;;;;22.65;9.15;;;;;;;18.87;93.47;94589.88;5063357;28;20216;-77
2022/08/28 03:45:50;;;;;;;15.65;8.95;;;;;;;18.74;94.14;94593.88;5066737;28;20220;-77
2022/08/28 03:48:18;;;;;;;18.80;8.88;;;;;;;18.69;94.37;94591.25;5066563;28;20193;-77
2022/08/28 03:50:45;;;;;;;16.35;8.73;;;;;;;18.66;94.44;94589.94;5066843;28;20256;-77
2022/08/28 03:53:12;;;;;;;24.23;8.98;;;;;;;18.69;94.31;94596.53;5067358;28;20325;-77
2022/08/28 03:55:41;;;;;;;22.58;8.27;;;;;;;18.70;94.34;94606.78;5068031;28;20286;-79
2022/08/28 03:58:08;;;;;;;18.67;9.00;;;;;;;18.64;94.40;94602.56;5067769;28;20288;-79
2022/08/28 04:00:35;;;;;;;15.73;8.90;;;;;;;18.64;94.43;94602.56;5065511;28;20201;-79
2022/08/28 04:03:03;;;;;;;20.30;9.10;;;;;;;18.65;94.88;94614.69;5065619;28;20212;-79
2022/08/28 04:05:30;;;;;;;19.23;8.63;;;;;;;18.60;96.05;94611.28;5066656;28;20321;-78
2022/08/28 04:07:56;;;;;;;19.20;9.25;;;;;;;18.69;94.42;94615.75;5067483;28;20209;-79
2022/08/28 04:10:23;;;;;;;21.42;9.15;;;;;;;18.79;94.23;94617.53;5067844;28;20737;-78
2022/08/28 04:12:52;;;;;;;23.58;8.73;;;;;;;18.89;93.50;94622.78;5066841;28;20202;-79
2022/08/28 04:15:20;;;;;;;19.75;8.82;;;;;;;18.84;93.65;94620.16;5066516;28;20236;-79
2022/08/28 04:17:46;;;;;;;16.90;8.93;;;;;;;18.81;93.89;94625.19;5066355;28;20266;-79
2022/08/28 04:20:13;;;;;;;20.45;9.05;;;;;;;18.81;93.85;94627.81;5066223;28;20220;-80
2022/08/28 04:22:42;;;;;;;19.45;8.48;;;;;;;18.81;93.38;94633.09;5066850;28;20209;-80
2022/08/28 04:25:09;;;;;;;30.55;8.98;;;;;;;18.87;92.05;94629.38;5067508;28;20228;-79
2022/08/28 04:27:35;;;;;;;19.92;8.95;;;;;;;18.80;91.70;94640.19;5066661;28;20228;-79
2022/08/28 04:30:05;;;;;;;18.65;8.85;;;;;;;18.68;91.99;94632.59;5066265;28;20625;-78
2022/08/28 04:32:34;;;;;;;28.05;9.73;;;;;;;18.70;92.50;94638.38;5065104;28;20229;-77
2022/08/28 04:35:01;;;;;;;22.08;8.77;;;;;;;18.74;92.53;94643.88;5063479;28;20209;-78
2022/08/28 04:37:27;;;;;;;24.52;9.10;;;;;;;18.76;93.25;94643.63;5063621;28;20727;-78
2022/08/28 04:39:54;;;;;;;24.30;9.18;;;;;;;18.86;93.18;94644.38;5065503;28;20949;-79
2022/08/28 04:42:21;;;;;;;23.58;9.18;;;;;;;18.86;92.89;94640.97;5066693;28;20235;-79
2022/08/28 04:44:48;;;;;;;22.25;9.57;;;;;;;18.83;90.96;94647.56;5065921;28;20640;-80
2022/08/28 04:47:16;;;;;;;16.52;8.50;;;;;;;18.65;92.15;94641.03;5065754;28;20205;-80
2022/08/28 04:49:43;;;;;;;22.33;9.98;;;;;;;18.73;92.82;94644.19;5065901;28;20279;-79
2022/08/28 04:52:10;;;;;;;18.58;8.60;;;;;;;18.76;93.08;94652.31;5066820;28;20225;-79
2022/08/28 04:54:37;;;;;;;25.02;10.70;;;;;;;18.79;91.50;94646.50;5065507;28;20251;-78
2022/08/28 04:57:04;;;;;;;27.85;10.07;;;;;;;18.88;91.71;94662.53;5062302;28;20206;-78
2022/08/28 04:59:31;;;;;;;20.30;10.73;;;;;;;18.93;91.42;94665.94;5065380;28;20213;-77
2022/08/28 05:01:58;;;;;;;20.23;10.60;;;;;;;19.26;89.38;94659.22;5065300;28;20205;-77
2022/08/28 05:04:26;;;;;;;25.08;10.25;;;;;;;19.42;90.80;94657.34;5065021;28;20213;-78
2022/08/28 05:06:54;;;;;;;25.20;10.32;;;;;;;19.45;89.93;94654.16;5064771;28;20213;-78
2022/08/28 05:09:21;;;;;;;25.30;9.05;;;;;;;19.47;88.74;94660.72;5065804;28;20621;-78
2022/08/28 05:11:49;;;;;;;22.17;8.57;;;;;;;19.45;88.58;94656.78;5064565;28;20221;-79
2022/08/28 05:14:16;;;;;;;23.15;9.02;;;;;;;19.52;87.38;94671.25;5064064;28;20328;-78
2022/08/28 05:16:45;;;;;;;18.30;8.63;;;;;;;19.48;86.81;94670.19;5064745;28;20743;-77
2022/08/28 05:19:12;;;;;;;18.63;8.65;;;;;;;19.50;86.87;94669.94;5063571;28;20212;-78
2022/08/28 05:21:41;;;;;;;17.08;9.15;;;;;;;19.33;86.99;94675.53;5064296;28;20190;-79
2022/08/28 05:24:09;;;;;;;17.63;9.00;;;;;;;19.37;87.04;94670.50;5063117;28;20189;-79
2022/08/28 05:26:37;;;;;;;19.65;7.90;;;;;;;19.36;87.53;94674.22;5064389;28;20691;-79
2022/08/28 05:29:05;;;;;;;21.45;8.23;;;;;;;19.37;87.71;94675.75;5064766;28;20264;-79
2022/08/28 05:31:35;;;;;;;16.38;7.82;;;;;;;19.35;88.52;94672.63;5062912;28;20302;-79
2022/08/28 05:34:03;;;;;;;16.55;7.90;;;;;;;19.43;88.29;94669.44;5062993;28;20570;-79
2022/08/28 05:36:33;;;;;;;17.73;7.65;;;;;;;19.48;88.01;94667.56;5064345;28;20224;-79
2022/08/28 05:39:04;;;;;;;18.77;8.00;;;;;;;19.57;87.31;94673.03;5063532;28;20263;-79
2022/08/28 05:41:31;;;;;;;15.98;7.63;;;;;;;19.72;86.00;94675.59;5064058;28;20216;-78
2022/08/28 05:43:59;;;;;;;16.15;7.63;;;;;;;19.91;84.04;94665.19;5065460;28;20221;-80
2022/08/28 05:46:27;;;;;;;18.23;8.50;;;;;;;20.06;83.86;94684.31;5064368;28;20201;-79
2022/08/28 05:48:54;;;;;;;19.80;7.80;;;;;;;20.07;83.55;94682.47;5063862;28;20233;-77
2022/08/28 05:51:24;;;;;;;24.08;8.77;;;;;;;20.09;83.53;94686.41;5062531;28;20248;-78
2022/08/28 05:53:51;;;;;;;16.65;7.88;;;;;;;20.07;83.56;94682.47;5063657;28;20629;-78
2022/08/28 05:56:22;;;;;;;18.33;7.90;;;;;;;20.17;83.65;94685.03;5063248;28;20197;-78
2022/08/28 05:58:49;;;;;;;18.90;8.68;;;;;;;20.21;83.52;94686.03;5061642;28;20227;-79
2022/08/28 06:01:19;;;;;;;17.10;8.30;;;;;;;20.22;83.55;94683.16;5064004;28;20198;-79
2022/08/28 06:03:53;;;;;;;22.58;8.88;;;;;;;20.13;83.57;94684.81;5064393;28;20625;-79
2022/08/28 06:06:23;;;;;;;17.17;8.70;;;;;;;20.07;83.82;94683.25;5062784;28;20726;-78
2022/08/28 06:08:50;;;;;;;21.67;8.55;;;;;;;20.04;84.01;94680.38;5063447;28;20213;-78
2022/08/28 06:11:21;;;;;;;19.77;8.93;;;;;;;20.06;84.43;94676.41;5063345;28;20954;-80
2022/08/28 06:13:48;;;;;;;20.63;9.07;;;;;;;20.07;84.38;94677.19;5062968;28;20687;-77
2022/08/28 06:16:15;;;;;;;59.65;11.68;;;;;;;20.18;83.60;94668.91;5063670;28;20205;-78
2022/08/28 06:18:42;;;;;;;34.60;10.02;;;;;;;20.63;82.65;94678.31;5060745;28;20684;-79
2022/08/28 06:21:09;;;;;;;22.48;8.65;;;;;;;20.81;80.13;94677.56;5065568;28;20668;-79
2022/08/28 06:23:35;;;;;;;19.50;9.20;;;;;;;20.93;79.19;94682.47;5064199;28;20212;-78
2022/08/28 06:26:05;;;;;;;20.13;9.20;;;;;;;21.00;79.52;94668.94;5063561;28;20214;-79
2022/08/28 06:28:34;;;;;;;19.98;8.68;;;;;;;21.08;79.02;94677.06;5063585;28;20209;-79
2022/08/28 06:31:02;;;;;;;19.83;8.85;;;;;;;21.19;79.63;94681.13;5063536;28;20296;-78
2022/08/28 06:33:29;;;;;;;22.20;8.93;;;;;;;21.21;79.97;94679.00;5063530;28;20644;-79
2022/08/28 06:35:57;;;;;;;25.35;9.45;;;;;;;21.28;78.82;94682.09;5063208;28;20197;-80
2022/08/28 06:38:26;;;;;;;16.88;8.80;;;;;;;21.43;78.03;94689.84;5062246;28;20774;-79
2022/08/28 06:40:56;;;;;;;25.45;9.40;;;;;;;21.43;76.89;94689.03;5061563;28;20209;-79
2022/08/28 06:43:24;;;;;;;17.20;8.88;;;;;;;21.41;76.27;94691.97;5061097;28;20205;-79
2022/08/28 06:45:54;;;;;;;29.00;9.40;;;;;;;21.54;76.08;94684.41;5062992;28;20305;-79
2022/08/28 06:48:24;;;;;;;19.63;8.57;;;;;;;21.63;76.40;94686.13;5062272;28;20220;-78
2022/08/28 06:50:53;;;;;;;17.13;8.20;;;;;;;21.73;74.94;94693.91;5062917;28;20284;-78
2022/08/28 06:53:23;;;;;;;20.05;9.05;;;;;;;21.75;76.21;94683.84;5063422;28;20225;-79
2022/08/28 06:56:01;;;;;;;19.25;9.00;;;;;;;21.88;74.67;94687.66;5064413;28;20212;-80
2022/08/28 06:58:29;;;;;;;21.38;8.55;;;;;;;22.10;72.42;94695.00;5062456;28;20225;-77
2022/08/28 07:01:07;;;;;;;17.10;8.82;;;;;;;22.15;71.67;94690.41;5063586;28;20245;-77
2022/08/28 07:03:34;;;;;;;21.85;9.60;;;;;;;22.08;72.16;94686.56;5064610;28;20220;-77
2022/08/28 07:06:03;;;;;;;20.33;9.25;;;;;;;22.07;73.01;94688.44;5063773;28;20213;-77
2022/08/28 07:08:30;;;;;;;17.73;8.52;;;;;;;22.18;72.32;94684.56;5061534;28;20237;-76
2022/08/28 07:10:58;;;;;;;25.58;9.57;;;;;;;22.21;73.05;94680.53;5061125;28;20208;-76
2022/08/28 07:13:25;;;;;;;21.08;9.50;;;;;;;22.37;73.18;94681.84;5060156;28;20783;-77
2022/08/28 07:15:52;;;;;;;20.35;8.40;;;;;;;22.54;73.01;94682.88;5061107;28;20233;-77
2022/08/28 07:18:21;;;;;;;17.20;9.35;;;;;;;22.68;72.26;94680.28;5061366;28;20212;-76
2022/08/28 07:20:56;;;;;;;17.50;9.23;;;;;;;22.80;71.44;94682.47;5062583;28;20205;-77
2022/08/28 07:23:23;;;;;;;17.10;8.32;;;;;;;22.97;71.07;94682.69;5061099;28;20288;-77
2022/08/28 07:25:50;;;;;;;16.52;8.27;;;;;;;23.10;70.30;94687.19;5062371;28;20204;-76
2022/08/28 07:28:17;;;;;;;15.80;8.93;;;;;;;23.12;68.86;94680.50;5063224;28;20209;-77
2022/08/28 07:30:44;;;;;;;21.08;9.23;;;;;;;23.22;68.16;94679.53;5060743;28;20406;-76
2022/08/28 07:33:13;;;;;;;19.85;8.98;;;;;;;23.20;68.87;94675.59;5061848;28;20236;-76
2022/08/28 07:35:44;;;;;;;20.58;8.93;;;;;;;23.31;67.15;94679.63;5063622;28;20300;-80
2022/08/28 07:38:11;;;;;;;21.80;9.13;;;;;;;23.42;67.33;94678.34;5063664;28;20197;-77
2022/08/28 07:40:38;;;;;;;19.67;8.43;;;;;;;23.55;66.26;94677.56;5064275;28;20205;-78
2022/08/28 07:45:57;;;;;;;25.10;9.13;;;;;;;23.72;65.12;94680.38;5061682;28;20204;-75
2022/08/28 07:48:24;;;;;;;17.17;8.05;;;;;;;23.77;65.98;94674.94;5061101;28;20211;-76
2022/08/28 07:50:52;;;;;;;27.83;7.82;;;;;;;23.86;65.33;94675.78;5061646;28;20224;-77
2022/08/28 07:53:19;;;;;;;15.43;7.57;;;;;;;23.88;64.99;94668.31;5061874;28;20259;-75
2022/08/28 07:55:49;;;;;;;18.02;7.50;;;;;;;24.06;64.98;94674.53;5062295;28;20205;-78
2022/08/28 07:58:16;;;;;;;20.85;7.93;;;;;;;24.22;64.81;94673.09;5061307;28;20274;-79
2022/08/28 08:00:43;;;;;;;13.88;7.88;;;;;;;24.32;64.41;94675.53;5061759;28;20614;-80
2022/08/28 08:03:10;;;;;;;17.42;7.80;;;;;;;24.27;61.31;94673.78;5061925;28;20255;-78
2022/08/28 08:05:37;;;;;;;19.65;8.35;;;;;;;24.23;61.22;94677.34;5061185;28;20209;-79
2022/08/28 08:08:05;;;;;;;22.42;8.30;;;;;;;24.30;61.87;94672.38;5061748;28;20285;-79
2022/08/28 08:10:32;;;;;;;15.02;8.10;;;;;;;24.44;61.87;94672.31;5061468;28;20703;-79
2022/08/28 08:12:59;;;;;;;18.20;8.65;;;;;;;24.61;60.71;94675.06;5061838;28;21264;-78
2022/08/28 08:15:26;;;;;;;21.15;7.53;;;;;;;24.68;60.86;94672.75;5061270;28;20225;-77
2022/08/28 08:17:53;;;;;;;17.48;7.20;;;;;;;24.76;59.72;94674.69;5061584;28;20216;-75
2022/08/28 08:20:20;;;;;;;22.48;7.80;;;;;;;24.83;59.61;94669.72;5062393;28;20205;-78
2022/08/28 08:22:47;;;;;;;21.33;8.45;;;;;;;24.91;59.85;94662.88;5061325;28;20259;-77
2022/08/28 08:25:17;;;;;;;25.77;8.60;;;;;;;24.98;60.24;94664.00;5062046;28;20213;-78
2022/08/28 08:27:46;;;;;;;16.00;9.40;;;;;;;25.08;59.33;94673.59;5061514;28;20208;-77
2022/08/28 08:30:13;;;;;;;23.30;8.30;;;;;;;25.16;59.36;94664.84;5062374;28;20209;-78
2022/08/28 08:32:40;;;;;;;22.05;8.07;;;;;;;25.22;58.30;94664.38;5064257;28;20229;-77
2022/08/28 08:35:07;;;;;;;24.65;8.35;;;;;;;25.26;57.86;94661.91;5065930;28;20656;-77
2022/08/28 08:37:34;;;;;;;12.98;8.18;;;;;;;25.37;58.56;94661.28;5064695;28;20197;-72
2022/08/28 08:40:01;;;;;;;22.60;8.60;;;;;;;25.55;58.95;94656.03;5064518;28;20265;-77
2022/08/28 08:42:32;;;;;;;26.17;8.98;;;;;;;25.62;58.68;94662.47;5064862;28;20208;-75
2022/08/28 08:45:02;;;;;;;17.77;8.32;;;;;;;25.68;58.15;94663.91;5064919;28;20213;-74
2022/08/28 08:47:36;;;;;;;19.55;8.35;;;;;;;25.73;56.79;94654.97;5066337;28;20233;-76
2022/08/28 08:50:09;;;;;;;22.25;8.55;;;;;;;25.89;55.55;94654.19;5065861;28;20641;-76
2022/08/28 08:52:40;;;;;;;19.33;8.63;;;;;;;25.99;55.41;94661.06;5064273;28;20233;-75
2022/08/28 08:55:21;;;;;;;25.50;8.30;;;;;;;26.11;55.69;94655.91;5065165;28;20205;-83
2022/08/28 08:57:56;;;;;;;14.27;7.43;;;;;;;26.22;56.02;94651.84;5063294;28;20194;-73
2022/08/28 09:00:25;;;;;;;16.02;7.65;;;;;;;26.35;55.30;94658.88;5064307;28;20200;-75
2022/08/28 09:03:01;;;;;;;17.80;7.65;;;;;;;26.44;55.17;94656.19;5061931;28;20214;-74
2022/08/28 09:05:43;;;;;;;16.40;7.05;;;;;;;26.62;55.44;94656.94;5063438;28;20227;-74
2022/08/28 09:08:22;;;;;;;16.70;7.10;;;;;;;26.82;55.04;94658.94;5062433;28;20273;-75
2022/08/28 09:11:00;;;;;;;15.07;7.05;;;;;;;26.93;53.93;94657.47;5063495;28;20225;-77
2022/08/28 09:13:38;;;;;;;21.63;8.00;;;;;;;27.07;53.74;94665.28;5063188;28;20217;-75
2022/08/28 09:16:17;;;;;;;19.23;6.95;;;;;;;27.17;53.50;94652.34;5064214;28;20193;-76
2022/08/28 09:18:46;;;;;;;23.60;7.72;;;;;;;27.22;53.20;94657.50;5062490;28;20216;-73
2022/08/28 09:21:24;;;;;;;18.95;7.82;;;;;;;27.30;52.40;94661.25;5061897;28;20200;-73
2022/08/28 09:23:53;;;;;;;24.25;7.70;;;;;;;27.43;51.87;94652.22;5062581;28;20266;-73
2022/08/28 09:26:23;;;;;;;16.90;7.20;;;;;;;27.60;52.58;94660.91;5062459;28;20201;-73
2022/08/28 09:29:06;;;;;;;24.23;8.85;;;;;;;27.90;51.65;94660.88;5063719;28;20631;-73
2022/08/28 09:31:36;;;;;;;24.40;8.57;;;;;;;28.09;50.51;94653.19;5064491;28;20826;-72
2022/08/28 09:34:21;;;;;;;21.52;8.05;;;;;;;28.25;50.46;94654.16;5063837;28;20248;-72
2022/08/28 09:36:48;;;;;;;21.92;8.45;;;;;;;28.35;49.52;94660.97;5042394;28;20197;-76
2022/08/28 09:39:19;;;;;;;21.15;8.50;;;;;;;28.42;49.05;94650.53;5061035;28;20205;-76
2022/08/28 09:44:58;;;;;;;15.95;7.40;;;;;;;28.70;47.59;94652.31;5063421;28;20201;-76
2022/08/28 09:47:40;;;;;;;15.68;8.32;;;;;;;28.86;48.44;94643.63;5062213;28;20209;-77
2022/08/28 09:50:29;;;;;;;11.85;7.30;;;;;;;29.08;48.15;94637.84;5063766;28;20216;-75
2022/08/28 09:52:58;;;;;;;11.13;6.88;;;;;;;29.30;46.93;94637.41;5062811;28;20224;-77
2022/08/28 09:55:36;;;;;;;18.80;7.55;;;;;;;29.52;44.77;94634.28;5063513;28;20586;-80
2022/08/28 09:58:04;;;;;;;13.65;7.32;;;;;;;29.70;43.25;94634.78;5063387;28;20208;-77
2022/08/28 10:00:37;;;;;;;17.98;7.75;;;;;;;29.87;42.95;94637.22;5062553;28;20924;-79
2022/08/28 10:03:13;;;;;;;13.75;7.05;;;;;;;29.94;42.17;94637.44;5064248;28;20290;-80
2022/08/28 10:05:50;;;;;;;18.58;7.45;;;;;;;30.10;41.80;94630.22;5063801;28;20288;-79
2022/08/28 10:08:27;;;;;;;19.45;7.13;;;;;;;30.22;41.99;94629.38;5063655;28;20215;-80
2022/08/28 10:11:01;;;;;;;17.25;7.10;;;;;;;30.53;43.52;94618.78;5063330;28;20205;-79
2022/08/28 10:13:31;;;;;;;19.27;6.95;;;;;;;30.67;42.33;94621.81;5062310;28;20217;-80
2022/08/28 10:16:23;;;;;;;13.57;6.78;;;;;;;30.88;41.60;94626.94;5063534;28;20283;-80
2022/08/28 10:19:02;;;;;;;18.17;6.55;;;;;;;31.00;40.92;94621.47;5063025;28;20213;-79
2022/08/28 10:21:37;;;;;;;17.00;6.78;;;;;;;31.18;40.90;94620.00;5064078;28;20231;-79
2022/08/28 10:24:30;;;;;;;17.65;7.03;;;;;;;31.43;39.78;94618.66;5063185;28;20218;-80
2022/08/28 10:27:07;;;;;;;16.23;6.75;;;;;;;31.39;40.42;94623.19;5064705;28;20201;-80
2022/08/28 10:29:47;;;;;;;17.83;7.32;;;;;;;31.56;38.34;94626.63;5064426;28;20209;-79
2022/08/28 10:32:32;;;;;;;17.73;7.40;;;;;;;31.82;36.61;94630.28;5061051;28;20209;-79
2022/08/28 10:35:06;;;;;;;17.55;6.53;;;;;;;32.06;36.42;94620.41;5062388;28;20236;-78
2022/08/28 10:37:44;;;;;;;17.15;6.72;;;;;;;32.22;35.99;94621.88;5063193;28;20204;-79
2022/08/28 10:40:16;;;;;;;22.38;6.82;;;;;;;32.44;35.94;94621.16;5060272;28;20308;-78
2022/08/28 10:42:50;;;;;;;15.32;6.63;;;;;;;32.61;37.44;94614.56;5063796;28;20301;-78
2022/08/28 10:45:21;;;;;;;12.63;6.72;;;;;;;32.69;36.72;94618.16;5061453;28;20209;-79
2022/08/28 10:47:55;;;;;;;18.25;7.30;;;;;;;32.83;34.44;94623.78;5064296;28;20198;-79
2022/08/28 10:50:26;;;;;;;17.70;7.38;;;;;;;33.11;34.58;94622.38;5059812;28;20802;-79
2022/08/28 10:52:58;;;;;;;17.25;6.93;;;;;;;33.36;35.55;94611.97;5060990;28;20217;-78
2022/08/28 10:55:31;;;;;;;14.93;7.25;;;;;;;33.63;35.38;94621.63;5063345;28;20725;-80
2022/08/28 10:58:03;;;;;;;16.48;6.95;;;;;;;33.62;33.66;94616.59;5062807;28;20193;-77
2022/08/28 11:00:30;;;;;;;16.65;6.50;;;;;;;33.65;33.72;94615.88;5061207;28;20216;-77
2022/08/28 11:03:02;;;;;;;17.13;8.07;;;;;;;33.90;33.41;94608.88;5061141;28;20185;-78
2022/08/28 11:05:40;;;;;;;16.23;6.50;;;;;;;34.08;31.44;94609.91;5060740;28;20185;-78
2022/08/28 11:08:18;;;;;;;15.15;6.30;;;;;;;34.08;31.95;94611.78;5061651;28;20711;-77
2022/08/28 11:10:49;;;;;;;11.90;6.85;;;;;;;34.20;33.18;94606.16;5059696;28;20690;-80
2022/08/28 11:13:51;;;;;;;22.58;7.28;;;;;;;34.40;32.25;94618.34;5062343;28;20642;-79
2022/08/28 11:16:26;;;;;;;9.90;6.32;;;;;;;34.68;31.75;94612.47;5060932;28;20220;-76
2022/08/28 11:19:18;;;;;;;19.25;6.18;;;;;;;34.94;31.27;94614.25;5061354;28;20201;-76
2022/08/28 11:21:50;;;;;;;13.98;6.63;;;;;;;35.18;29.80;94611.75;5059333;28;20193;-79
2022/08/28 11:24:42;;;;;;;17.45;6.57;;;;;;;35.17;30.49;94612.94;5061492;28;20231;-76
2022/08/28 11:27:28;;;;;;;16.08;6.72;;;;;;;35.44;29.54;94605.38;5060731;28;20201;-77
2022/08/28 11:30:32;;;;;;;14.55;6.47;;;;;;;35.45;30.23;94611.56;5061757;28;20192;-77
2022/08/28 11:33:15;;;;;;;14.10;5.68;;;;;;;35.46;30.08;94602.31;5062427;28;20225;-78
2022/08/28 11:35:50;;;;;;;12.63;5.80;;;;;;;35.46;29.94;94613.91;5041959;28;20204;-77
2022/08/28 11:38:54;;;;;;;13.40;6.28;;;;;;;35.38;28.48;94606.13;5059099;28;20196;-79
2022/08/28 11:41:25;;;;;;;18.13;6.65;;;;;;;35.18;28.80;94600.94;5059557;28;20288;-73
2022/08/28 11:44:12;;;;;;;14.25;6.93;;;;;;;35.06;29.72;94598.53;5060278;28;20282;-75